Time;durP1;ratioP1;P1;durP2;ratioP2;P2;SDS_P1;SDS_P2;PMS_P1;PMS_P2;Temp;Humidity;BMP_temperature;BMP_pressure;BME280_temperature;BME280_humidity;BME280_pressure;Samples;Min_cycle;Max_cycle;Signal;HPM_P1;HPM_P2
2022/03/12 00:01:53;;;;;;;;;;;;;;;;;;5068704;28;1145;-74
2022/03/12 00:04:18;;;;;;;;;;;;;;;;;;5088276;28;1950;-75
2022/03/12 00:06:43;;;;;;;;;;;;;;;;;;5054228;28;1408;-74
2022/03/12 00:09:09;;;;;;;;;;;;;;;;;;5071485;28;1355;-74
2022/03/12 00:11:35;;;;;;;;;;;;;;;;;;5085112;28;1399;-75
2022/03/12 00:14:02;;;;;;;;;;;;;;;;;;5104749;28;1151;-74
2022/03/12 00:16:28;;;;;;;;;;;;;;;;;;5103013;28;1107;-74
2022/03/12 00:19:04;;;;;;;;;;;;;;;;;;5086056;28;1147;-74
2022/03/12 00:21:33;;;;;;;;;;;;;;;;;;5085734;28;1299;-74
2022/03/12 00:24:00;;;;;;;;;;;;;;;;;;5087858;28;1899;-74
2022/03/12 00:26:30;;;;;;;;;;;;;;;;;;5084948;28;1148;-75
2022/03/12 00:28:56;;;;;;;;;;;;;;;;;;5085625;28;1222;-74
2022/03/12 00:31:22;;;;;;;;;;;;;;;;;;5103892;28;1147;-75
2022/03/12 00:33:47;;;;;;;;;;;;;;;;;;5076437;28;1227;-74
2022/03/12 00:36:14;;;;;;;;;;;;;;;;;;5084321;28;1172;-73
2022/03/12 00:38:39;;;;;;;;;;;;;;;;;;5065150;28;1235;-73
2022/03/12 00:41:07;;;;;;;;;;;;;;;;;;5085499;28;1143;-73
2022/03/12 00:43:32;;;;;;;;;;;;;;;;;;5061041;28;1914;-74
2022/03/12 00:45:57;;;;;;;;;;;;;;;;;;5067013;28;1148;-74
2022/03/12 00:48:23;;;;;;;;;;;;;;;;;;5066443;28;1290;-74
2022/03/12 00:50:48;;;;;;;;;;;;;;;;;;5065749;28;1228;-74
2022/03/12 00:53:13;;;;;;;;;;;;;;;;;;5084377;28;1202;-74
2022/03/12 00:55:38;;;;;;;;;;;;;;;;;;5065319;28;1203;-74
2022/03/12 00:58:04;;;;;;;;;;;;;;;;;;5092598;28;1231;-74
2022/03/12 01:00:30;;;;;;;;;;;;;;;;;;5082727;28;1140;-74
2022/03/12 01:02:55;;;;;;;;;;;;;;;;;;5069068;28;1355;-74
2022/03/12 01:05:39;;;;;;;;;;;;;;;;;;5106951;28;1949;-74
2022/03/12 01:08:05;;;;;;;;;;;;;;;;;;5088018;28;1207;-74
2022/03/12 01:10:32;;;;;;;;;;;;;;;;;;5085122;28;1183;-74
2022/03/12 01:12:57;;;;;;;;;;;;;;;;;;5086236;28;1191;-74
2022/03/12 01:15:22;;;;;;;;;;;;;;;;;;5067091;28;1310;-73
2022/03/12 01:17:47;;;;;;;;;;;;;;;;;;5066905;28;1163;-73
2022/03/12 01:20:13;;;;;;;;;;;;;;;;;;5085247;28;1179;-74
2022/03/12 01:22:39;;;;;;;;;;;;;;;;;;5082618;28;1369;-74
2022/03/12 01:25:06;;;;;;;;;;;;;;;;;;5103688;28;1980;-73
2022/03/12 01:27:34;;;;;;;;;;;;;;;;;;5101202;28;1123;-74
2022/03/12 01:29:59;;;;;;;;;;;;;;;;;;5083277;28;1172;-75
2022/03/12 01:32:25;;;;;;;;;;;;;;;;;;5104167;28;1158;-75
2022/03/12 01:34:51;;;;;;;;;;;;;;;;;;5102373;28;1143;-73
2022/03/12 01:37:19;;;;;;;;;;;;;;;;;;5086068;28;1354;-74
2022/03/12 01:39:48;;;;;;;;;;;;;;;;;;5081123;28;1212;-73
2022/03/12 01:42:14;;;;;;;;;;;;;;;;;;5063813;28;1306;-74
2022/03/12 01:44:40;;;;;;;;;;;;;;;;;;5060622;28;1894;-74
2022/03/12 01:47:06;;;;;;;;;;;;;;;;;;5064287;28;1286;-74
2022/03/12 01:49:35;;;;;;;;;;;;;;;;;;5068498;28;1163;-75
2022/03/12 01:52:00;;;;;;;;;;;;;;;;;;5084930;28;1298;-75
2022/03/12 01:54:27;;;;;;;;;;;;;;;;;;5083814;28;1463;-75
2022/03/12 01:56:53;;;;;;;;;;;;;;;;;;5102498;28;1127;-75
2022/03/12 01:59:19;;;;;;;;;;;;;;;;;;5086336;28;1287;-74
2022/03/12 02:01:52;;;;;;;;;;;;;;;;;;5103665;28;1024;-73
2022/03/12 02:04:18;;;;;;;;;;;;;;;;;;5108804;28;1957;-74
2022/03/12 02:06:43;;;;;;;;;;;;;;;;;;5105487;28;1032;-73
2022/03/12 02:09:09;;;;;;;;;;;;;;;;;;5089803;28;1176;-74
2022/03/12 02:11:39;;;;;;;;;;;;;;;;;;5104687;28;1234;-75
2022/03/12 02:14:09;;;;;;;;;;;;;;;;;;5090275;28;1286;-74
2022/03/12 02:16:35;;;;;;;;;;;;;;;;;;5088567;28;1392;-74
2022/03/12 02:19:00;;;;;;;;;;;;;;;;;;5095526;28;1303;-74
2022/03/12 02:21:34;;;;;;;;;;;;;;;;;;5094571;28;1175;-74
2022/03/12 02:23:59;;;;;;;;;;;;;;;;;;5085065;28;1910;-74
2022/03/12 02:26:25;;;;;;;;;;;;;;;;;;5068886;28;1136;-74
2022/03/12 02:28:51;;;;;;;;;;;;;;;;;;5065790;28;1221;-74
2022/03/12 02:31:16;;;;;;;;;;;;;;;;;;5068668;28;1171;-74
2022/03/12 02:33:43;;;;;;;;;;;;;;;;;;5065889;28;1030;-74
2022/03/12 02:36:12;;;;;;;;;;;;;;;;;;5069543;28;1278;-74
2022/03/12 02:38:38;;;;;;;;;;;;;;;;;;5084844;28;1087;-74
2022/03/12 02:41:10;;;;;;;;;;;;;;;;;;5053013;28;1386;-74
2022/03/12 02:43:43;;;;;;;;;;;;;;;;;;5063354;28;1889;-74
2022/03/12 02:46:09;;;;;;;;;;;;;;;;;;5052187;28;1357;-74
2022/03/12 02:48:35;;;;;;;;;;;;;;;;;;5087299;28;1239;-73
2022/03/12 02:51:01;;;;;;;;;;;;;;;;;;5052409;28;1292;-73
2022/03/12 02:53:26;;;;;;;;;;;;;;;;;;5085608;28;1226;-74
2022/03/12 02:55:52;;;;;;;;;;;;;;;;;;5085004;28;1152;-73
2022/03/12 02:58:17;;;;;;;;;;;;;;;;;;5047825;28;1160;-73
2022/03/12 03:00:42;;;;;;;;;;;;;;;;;;5065304;28;1443;-75
2022/03/12 03:03:08;;;;;;;;;;;;;;;;;;5085863;28;1246;-74
2022/03/12 03:05:44;;;;;;;;;;;;;;;;;;5101412;28;2004;-74
2022/03/12 03:08:12;;;;;;;;;;;;;;;;;;5082950;28;1190;-74
2022/03/12 03:10:39;;;;;;;;;;;;;;;;;;5098553;28;1349;-75
2022/03/12 03:13:15;;;;;;;;;;;;;;;;;;5084410;28;1304;-76
2022/03/12 03:15:42;;;;;;;;;;;;;;;;;;5065392;28;1220;-74
2022/03/12 03:18:10;;;;;;;;;;;;;;;;;;5066427;28;1132;-74
2022/03/12 03:20:39;;;;;;;;;;;;;;;;;;5067357;28;1239;-74
2022/03/12 03:23:08;;;;;;;;;;;;;;;;;;5065819;28;1128;-74
2022/03/12 03:25:34;;;;;;;;;;;;;;;;;;5067349;28;1910;-74
2022/03/12 03:27:59;;;;;;;;;;;;;;;;;;5063848;28;1180;-74
2022/03/12 03:30:24;;;;;;;;;;;;;;;;;;5063273;28;1233;-75
2022/03/12 03:32:49;;;;;;;;;;;;;;;;;;5084888;28;1072;-75
2022/03/12 03:35:15;;;;;;;;;;;;;;;;;;5071964;28;1136;-74
2022/03/12 03:37:41;;;;;;;;;;;;;;;;;;5051360;28;1263;-74
2022/03/12 03:40:07;;;;;;;;;;;;;;;;;;5067094;28;1313;-74
2022/03/12 03:42:33;;;;;;;;;;;;;;;;;;5083638;28;1124;-74
2022/03/12 03:45:02;;;;;;;;;;;;;;;;;;5083950;28;1957;-74
2022/03/12 03:47:28;;;;;;;;;;;;;;;;;;5088878;28;1294;-74
2022/03/12 03:49:53;;;;;;;;;;;;;;;;;;5085805;28;1475;-74
2022/03/12 03:52:18;;;;;;;;;;;;;;;;;;5069994;28;1341;-74
2022/03/12 03:54:44;;;;;;;;;;;;;;;;;;5086086;28;1199;-74
2022/03/12 03:57:13;;;;;;;;;;;;;;;;;;5068773;28;1152;-74
2022/03/12 03:59:38;;;;;;;;;;;;;;;;;;5083987;28;1319;-75
2022/03/12 04:02:03;;;;;;;;;;;;;;;;;;5105545;28;1068;-75
2022/03/12 04:04:29;;;;;;;;;;;;;;;;;;5106444;28;1928;-74
2022/03/12 04:06:55;;;;;;;;;;;;;;;;;;5084691;28;1179;-74
2022/03/12 04:09:20;;;;;;;;;;;;;;;;;;5090480;28;1242;-74
2022/03/12 04:11:46;;;;;;;;;;;;;;;;;;5103385;28;1409;-73
2022/03/12 04:14:12;;;;;;;;;;;;;;;;;;5086349;28;1171;-74
2022/03/12 04:16:37;;;;;;;;;;;;;;;;;;5086892;28;1147;-75
2022/03/12 04:19:07;;;;;;;;;;;;;;;;;;5085082;28;1267;-75
2022/03/12 04:21:32;;;;;;;;;;;;;;;;;;5071774;28;1432;-75
2022/03/12 04:23:57;;;;;;;;;;;;;;;;;;5084643;28;1910;-75
2022/03/12 04:26:24;;;;;;;;;;;;;;;;;;5087340;28;1417;-74
2022/03/12 04:28:51;;;;;;;;;;;;;;;;;;5083505;28;1246;-74
2022/03/12 04:31:17;;;;;;;;;;;;;;;;;;5067871;28;1470;-74
2022/03/12 04:33:44;;;;;;;;;;;;;;;;;;5085979;28;1238;-73
2022/03/12 04:36:10;;;;;;;;;;;;;;;;;;5085433;28;1199;-73
2022/03/12 04:38:35;;;;;;;;;;;;;;;;;;5067689;28;1277;-74
2022/03/12 04:41:00;;;;;;;;;;;;;;;;;;5068209;28;1203;-74
2022/03/12 04:43:27;;;;;;;;;;;;;;;;;;5065872;28;1889;-74
2022/03/12 04:45:53;;;;;;;;;;;;;;;;;;5082879;28;1373;-74
2022/03/12 04:48:20;;;;;;;;;;;;;;;;;;5104741;28;1104;-73
2022/03/12 04:50:53;;;;;;;;;;;;;;;;;;5079871;28;1345;-74
2022/03/12 04:53:19;;;;;;;;;;;;;;;;;;5083917;28;1045;-73
2022/03/12 04:55:46;;;;;;;;;;;;;;;;;;5067087;28;1434;-74
2022/03/12 04:58:13;;;;;;;;;;;;;;;;;;5044977;28;1217;-74
2022/03/12 05:00:39;;;;;;;;;;;;;;;;;;5047966;28;1354;-75
2022/03/12 05:03:12;;;;;;;;;;;;;;;;;;5084641;28;1195;-75
2022/03/12 05:05:39;;;;;;;;;;;;;;;;;;5086702;28;1947;-74
2022/03/12 05:08:05;;;;;;;;;;;;;;;;;;5083711;28;1163;-75
2022/03/12 05:10:30;;;;;;;;;;;;;;;;;;5104776;28;1222;-75
2022/03/12 05:13:00;;;;;;;;;;;;;;;;;;5062620;28;1148;-74
2022/03/12 05:15:27;;;;;;;;;;;;;;;;;;5061375;28;1390;-74
2022/03/12 05:17:54;;;;;;;;;;;;;;;;;;5047432;28;1108;-74
2022/03/12 05:20:25;;;;;;;;;;;;;;;;;;5064699;28;1330;-75
2022/03/12 05:22:54;;;;;;;;;;;;;;;;;;5064713;28;1306;-74
2022/03/12 05:25:19;;;;;;;;;;;;;;;;;;5064841;28;1922;-75
2022/03/12 05:28:13;;;;;;;;;;;;;;;;;;5081586;28;1152;-75
2022/03/12 05:30:39;;;;;;;;;;;;;;;;;;5061050;28;1217;-75
2022/03/12 05:33:05;;;;;;;;;;;;;;;;;;5046370;28;1467;-75
2022/03/12 05:35:30;;;;;;;;;;;;;;;;;;5084331;28;1215;-76
2022/03/12 05:37:55;;;;;;;;;;;;;;;;;;5081174;28;1176;-75
2022/03/12 05:40:23;;;;;;;;;;;;;;;;;;5065973;28;1033;-75
2022/03/12 05:42:59;;;;;;;;;;;;;;;;;;5082004;28;1210;-75
2022/03/12 05:45:24;;;;;;;;;;;;;;;;;;5062660;28;1878;-75
2022/03/12 05:47:51;;;;;;;;;;;;;;;;;;5050139;28;1418;-75
2022/03/12 05:50:17;;;;;;;;;;;;;;;;;;5078754;28;1261;-75
2022/03/12 05:52:48;;;;;;;;;;;;;;;;;;5085655;28;1311;-75
2022/03/12 05:55:14;;;;;;;;;;;;;;;;;;5067326;28;1199;-75
2022/03/12 05:57:40;;;;;;;;;;;;;;;;;;5084030;28;1543;-74
2022/03/12 06:00:07;;;;;;;;;;;;;;;;;;5097679;28;1132;-75
2022/03/12 06:02:32;;;;;;;;;;;;;;;;;;5104207;28;1280;-75
2022/03/12 06:05:01;;;;;;;;;;;;;;;;;;5052607;28;1902;-75
2022/03/12 06:07:27;;;;;;;;;;;;;;;;;;5048664;28;1255;-74
2022/03/12 06:09:54;;;;;;;;;;;;;;;;;;5047075;28;1211;-75
2022/03/12 06:12:20;;;;;;;;;;;;;;;;;;5062939;28;1156;-75
2022/03/12 06:14:47;;;;;;;;;;;;;;;;;;5063133;28;1428;-74
2022/03/12 06:17:13;;;;;;;;;;;;;;;;;;5100769;28;1163;-75
2022/03/12 06:19:38;;;;;;;;;;;;;;;;;;5084250;28;1211;-75
2022/03/12 06:22:04;;;;;;;;;;;;;;;;;;5080601;28;1374;-74
2022/03/12 06:24:30;;;;;;;;;;;;;;;;;;5064984;28;1966;-74
2022/03/12 06:26:57;;;;;;;;;;;;;;;;;;5063831;28;1726;-75
2022/03/12 06:29:23;;;;;;;;;;;;;;;;;;5083211;28;1241;-75
2022/03/12 06:31:48;;;;;;;;;;;;;;;;;;5063999;28;1589;-75
2022/03/12 06:34:13;;;;;;;;;;;;;;;;;;5082860;28;1418;-74
2022/03/12 06:36:40;;;;;;;;;;;;;;;;;;5068768;28;1226;-74
2022/03/12 06:39:06;;;;;;;;;;;;;;;;;;5088618;28;1304;-75
2022/03/12 06:41:38;;;;;;;;;;;;;;;;;;5070037;28;1168;-75
2022/03/12 06:44:05;;;;;;;;;;;;;;;;;;5064333;28;1965;-75
2022/03/12 06:46:31;;;;;;;;;;;;;;;;;;5064287;28;1183;-73
2022/03/12 06:48:58;;;;;;;;;;;;;;;;;;5086616;28;1156;-76
2022/03/12 06:51:24;;;;;;;;;;;;;;;;;;5078903;28;1223;-74
2022/03/12 06:53:49;;;;;;;;;;;;;;;;;;5052730;28;1195;-73
2022/03/12 06:56:15;;;;;;;;;;;;;;;;;;5079359;28;1215;-74
2022/03/12 06:58:40;;;;;;;;;;;;;;;;;;5063275;28;1323;-75
2022/03/12 07:01:06;;;;;;;;;;;;;;;;;;5083932;28;1136;-74
2022/03/12 07:03:31;;;;;;;;;;;;;;;;;;5067320;28;1897;-74
2022/03/12 07:06:00;;;;;;;;;;;;;;;;;;5103850;28;1191;-75
2022/03/12 07:08:25;;;;;;;;;;;;;;;;;;5071552;28;1330;-75
2022/03/12 07:10:51;;;;;;;;;;;;;;;;;;5071842;28;1223;-75
2022/03/12 07:13:16;;;;;;;;;;;;;;;;;;5100768;28;1179;-75
2022/03/12 07:15:42;;;;;;;;;;;;;;;;;;5085998;28;1243;-75
2022/03/12 07:18:08;;;;;;;;;;;;;;;;;;5086105;28;1169;-74
2022/03/12 07:20:33;;;;;;;;;;;;;;;;;;5091891;28;1175;-74
2022/03/12 07:23:04;;;;;;;;;;;;;;;;;;5094200;28;1316;-74
2022/03/12 07:25:30;;;;;;;;;;;;;;;;;;5089231;28;1913;-75
2022/03/12 07:27:55;;;;;;;;;;;;;;;;;;5069692;28;1386;-74
2022/03/12 07:30:21;;;;;;;;;;;;;;;;;;5063871;28;1179;-76
2022/03/12 07:32:47;;;;;;;;;;;;;;;;;;5079085;28;1226;-74
2022/03/12 07:35:13;;;;;;;;;;;;;;;;;;5065858;28;1326;-75
2022/03/12 07:37:38;;;;;;;;;;;;;;;;;;5072359;28;1192;-75
2022/03/12 07:40:05;;;;;;;;;;;;;;;;;;5068962;28;1512;-74
2022/03/12 07:42:30;;;;;;;;;;;;;;;;;;5050428;28;1491;-75
2022/03/12 07:44:55;;;;;;;;;;;;;;;;;;5075851;28;1951;-75
2022/03/12 07:47:20;;;;;;;;;;;;;;;;;;5074858;28;1157;-74
2022/03/12 07:49:46;;;;;;;;;;;;;;;;;;5050174;28;1256;-74
2022/03/12 07:52:11;;;;;;;;;;;;;;;;;;5047635;28;1274;-75
2022/03/12 07:54:37;;;;;;;;;;;;;;;;;;5049829;28;1348;-75
2022/03/12 07:57:03;;;;;;;;;;;;;;;;;;5064425;28;1219;-75
2022/03/12 07:59:33;;;;;;;;;;;;;;;;;;5046200;28;1223;-76
2022/03/12 08:01:58;;;;;;;;;;;;;;;;;;5066925;28;1384;-75
2022/03/12 08:04:30;;;;;;;;;;;;;;;;;;5064490;28;1985;-74
2022/03/12 08:07:02;;;;;;;;;;;;;;;;;;5067064;28;1053;-76
2022/03/12 08:09:28;;;;;;;;;;;;;;;;;;5069554;28;1302;-74
2022/03/12 08:11:53;;;;;;;;;;;;;;;;;;5083452;28;1132;-75
2022/03/12 08:14:22;;;;;;;;;;;;;;;;;;5066818;28;1213;-74
2022/03/12 08:16:48;;;;;;;;;;;;;;;;;;5048563;28;1199;-75
2022/03/12 08:19:14;;;;;;;;;;;;;;;;;;5047934;28;1200;-75
2022/03/12 08:21:39;;;;;;;;;;;;;;;;;;5049504;28;1310;-75
2022/03/12 08:24:05;;;;;;;;;;;;;;;;;;5048903;28;1950;-75
2022/03/12 08:26:35;;;;;;;;;;;;;;;;;;5064930;28;1329;-75
2022/03/12 08:29:01;;;;;;;;;;;;;;;;;;5047922;28;1242;-75
2022/03/12 08:31:26;;;;;;;;;;;;;;;;;;5081360;28;1069;-75
2022/03/12 08:33:52;;;;;;;;;;;;;;;;;;5067063;28;1359;-74
2022/03/12 08:36:17;;;;;;;;;;;;;;;;;;5083342;28;1203;-74
2022/03/12 08:38:42;;;;;;;;;;;;;;;;;;5064743;28;1279;-75
2022/03/12 08:41:10;;;;;;;;;;;;;;;;;;5064290;28;1267;-74
2022/03/12 08:43:36;;;;;;;;;;;;;;;;;;5079314;28;1953;-74
2022/03/12 08:46:11;;;;;;;;;;;;;;;;;;5065890;28;1371;-75
2022/03/12 08:48:36;;;;;;;;;;;;;;;;;;5096236;28;1084;-75
2022/03/12 08:51:04;;;;;;;;;;;;;;;;;;5106126;28;1214;-75
2022/03/12 08:53:30;;;;;;;;;;;;;;;;;;5086034;28;1259;-76
2022/03/12 08:55:55;;;;;;;;;;;;;;;;;;5086920;28;1179;-74
2022/03/12 08:58:23;;;;;;;;;;;;;;;;;;5058637;28;1164;-74
2022/03/12 09:00:52;;;;;;;;;;;;;;;;;;5064744;28;1231;-74
2022/03/12 09:03:17;;;;;;;;;;;;;;;;;;5082073;28;1037;-75
2022/03/12 09:05:43;;;;;;;;;;;;;;;;;;5084425;28;1948;-74
2022/03/12 09:08:12;;;;;;;;;;;;;;;;;;5083316;28;1144;-74
2022/03/12 09:10:38;;;;;;;;;;;;;;;;;;5064724;28;1129;-75
2022/03/12 09:13:03;;;;;;;;;;;;;;;;;;5064934;28;1330;-75
2022/03/12 09:15:28;;;;;;;;;;;;;;;;;;5060962;28;1323;-76
2022/03/12 09:17:54;;;;;;;;;;;;;;;;;;5066376;28;1152;-74
2022/03/12 09:20:19;;;;;;;;;;;;;;;;;;5082355;28;1203;-74
2022/03/12 09:22:45;;;;;;;;;;;;;;;;;;5083423;28;1156;-74
2022/03/12 09:25:12;;;;;;;;;;;;;;;;;;5082279;28;1969;-74
2022/03/12 09:27:38;;;;;;;;;;;;;;;;;;5082879;28;1192;-73
2022/03/12 09:30:03;;;;;;;;;;;;;;;;;;5062665;28;1247;-74
2022/03/12 09:32:29;;;;;;;;;;;;;;;;;;5068768;28;1242;-74
2022/03/12 09:34:54;;;;;;;;;;;;;;;;;;5086410;28;1148;-74
2022/03/12 09:37:19;;;;;;;;;;;;;;;;;;5088147;28;1263;-75
2022/03/12 09:39:45;;;;;;;;;;;;;;;;;;5064923;28;1173;-74
2022/03/12 09:42:11;;;;;;;;;;;;;;;;;;5080338;28;1199;-75
2022/03/12 09:44:36;;;;;;;;;;;;;;;;;;5048927;28;1949;-75
2022/03/12 09:47:02;;;;;;;;;;;;;;;;;;5086688;28;1203;-78
2022/03/12 09:49:27;;;;;;;;;;;;;;;;;;5101976;28;1200;-79
2022/03/12 09:51:53;;;;;;;;;;;;;;;;;;5082103;28;1345;-77
2022/03/12 09:54:18;;;;;;;;;;;;;;;;;;5065469;28;1323;-78
2022/03/12 09:56:44;;;;;;;;;;;;;;;;;;5065615;28;1288;-78
2022/03/12 09:59:14;;;;;;;;;;;;;;;;;;5067720;28;1255;-78
2022/03/12 10:01:39;;;;;;;;;;;;;;;;;;5083284;28;1223;-77
2022/03/12 10:04:04;;;;;;;;;;;;;;;;;;5103713;28;1907;-77
2022/03/12 10:06:35;;;;;;;;;;;;;;;;;;5099272;28;1107;-80
2022/03/12 10:09:03;;;;;;;;;;;;;;;;;;5085061;28;1280;-78
2022/03/12 10:11:34;;;;;;;;;;;;;;;;;;5067755;28;1299;-79
2022/03/12 10:13:59;;;;;;;;;;;;;;;;;;5078664;28;1210;-78
2022/03/12 10:16:25;;;;;;;;;;;;;;;;;;5050622;28;1192;-77
2022/03/12 10:18:51;;;;;;;;;;;;;;;;;;5073835;28;1191;-76
2022/03/12 10:21:16;;;;;;;;;;;;;;;;;;5089761;28;1183;-78
2022/03/12 10:23:42;;;;;;;;;;;;;;;;;;5070588;28;1902;-79
2022/03/12 10:26:07;;;;;;;;;;;;;;;;;;5089764;28;1322;-78
2022/03/12 10:28:36;;;;;;;;;;;;;;;;;;5090357;28;1173;-78
2022/03/12 10:31:05;;;;;;;;;;;;;;;;;;5088674;28;1143;-80
2022/03/12 10:33:30;;;;;;;;;;;;;;;;;;5078778;28;1247;-78
2022/03/12 10:36:06;;;;;;;;;;;;;;;;;;5074310;28;1415;-76
2022/03/12 10:38:36;;;;;;;;;;;;;;;;;;5073383;28;1159;-80
2022/03/12 10:41:02;;;;;;;;;;;;;;;;;;5106682;28;1127;-79
2022/03/12 10:43:29;;;;;;;;;;;;;;;;;;5082208;28;1442;-79
2022/03/12 10:45:57;;;;;;;;;;;;;;;;;;5100643;28;1902;-77
2022/03/12 10:48:22;;;;;;;;;;;;;;;;;;5039013;28;1309;-76
2022/03/12 10:50:50;;;;;;;;;;;;;;;;;;5043820;28;1328;-78
2022/03/12 10:53:15;;;;;;;;;;;;;;;;;;5084186;28;1281;-79
2022/03/12 10:55:45;;;;;;;;;;;;;;;;;;5109635;28;1198;-80
2022/03/12 10:58:18;;;;;;;;;;;;;;;;;;5077079;28;1306;-80
2022/03/12 11:01:00;;;;;;;;;;;;;;;;;;5098200;28;1116;-78
2022/03/12 11:03:30;;;;;;;;;;;;;;;;;;5099633;28;1099;-81
2022/03/12 11:05:56;;;;;;;;;;;;;;;;;;5096596;28;1897;-77
2022/03/12 11:08:26;;;;;;;;;;;;;;;;;;5055927;28;1412;-80
2022/03/12 11:11:12;;;;;;;;;;;;;;;;;;5095721;28;1319;-78
2022/03/12 11:13:44;;;;;;;;;;;;;;;;;;5071942;28;1259;-76
2022/03/12 11:16:13;;;;;;;;;;;;;;;;;;5084758;28;1111;-77
2022/03/12 11:18:45;;;;;;;;;;;;;;;;;;5068452;28;1268;-74
2022/03/12 11:21:10;;;;;;;;;;;;;;;;;;5093927;28;1176;-78
2022/03/12 11:23:37;;;;;;;;;;;;;;;;;;5070294;28;1218;-77
2022/03/12 11:26:08;;;;;;;;;;;;;;;;;;5107043;28;1890;-76
2022/03/12 11:28:37;;;;;;;;;;;;;;;;;;5070391;28;1077;-78
2022/03/12 11:31:04;;;;;;;;;;;;;;;;;;5089197;28;1368;-77
2022/03/12 11:33:30;;;;;;;;;;;;;;;;;;5075322;28;1342;-78
2022/03/12 11:36:00;;;;;;;;;;;;;;;;;;5064728;28;1276;-78
2022/03/12 11:38:26;;;;;;;;;;;;;;;;;;5069658;28;1294;-78
2022/03/12 11:41:01;;;;;;;;;;;;;;;;;;5079280;28;1319;-74
2022/03/12 11:43:34;;;;;;;;;;;;;;;;;;5069604;28;1259;-74
2022/03/12 11:46:00;;;;;;;;;;;;;;;;;;5064432;28;1967;-74
2022/03/12 11:48:29;;;;;;;;;;;;;;;;;;5067609;28;1203;-77
2022/03/12 11:50:55;;;;;;;;;;;;;;;;;;5107684;28;1258;-77
2022/03/12 11:53:23;;;;;;;;;;;;;;;;;;5074150;28;1337;-75
2022/03/12 11:55:51;;;;;;;;;;;;;;;;;;5104902;28;1144;-75
2022/03/12 11:58:26;;;;;;;;;;;;;;;;;;5089035;28;1172;-75
2022/03/12 12:00:51;;;;;;;;;;;;;;;;;;5082653;28;1021;-76
2022/03/12 12:03:16;;;;;;;;;;;;;;;;;;5082672;28;1417;-75
2022/03/12 12:05:43;;;;;;;;;;;;;;;;;;5071765;28;1893;-76
2022/03/12 12:08:12;;;;;;;;;;;;;;;;;;5085517;28;1220;-75
2022/03/12 12:10:41;;;;;;;;;;;;;;;;;;5085901;28;1551;-76
2022/03/12 12:13:08;;;;;;;;;;;;;;;;;;5071065;28;1326;-76
2022/03/12 12:15:36;;;;;;;;;;;;;;;;;;5103202;28;1147;-79
2022/03/12 12:18:03;;;;;;;;;;;;;;;;;;5085759;28;1422;-76
2022/03/12 12:20:29;;;;;;;;;;;;;;;;;;5104651;28;1119;-77
2022/03/12 12:22:55;;;;;;;;;;;;;;;;;;5090611;28;1166;-77
2022/03/12 12:25:30;;;;;;;;;;;;;;;;;;5086084;28;1918;-76
2022/03/12 12:27:56;;;;;;;;;;;;;;;;;;5074147;28;1222;-77
2022/03/12 12:30:49;;;;;;;;;;;;;;;;;;5064754;28;1322;-77
2022/03/12 12:33:15;;;;;;;;;;;;;;;;;;5057703;28;1377;-77
2022/03/12 12:35:41;;;;;;;;;;;;;;;;;;5084584;28;1267;-77
2022/03/12 12:38:10;;;;;;;;;;;;;;;;;;5067051;28;1319;-76
2022/03/12 12:40:48;;;;;;;;;;;;;;;;;;5064654;28;1254;-76
2022/03/12 12:43:18;;;;;;;;;;;;;;;;;;5065669;28;1431;-77
2022/03/12 12:45:46;;;;;;;;;;;;;;;;;;5081971;28;1958;-77
2022/03/12 12:48:14;;;;;;;;;;;;;;;;;;5086245;28;1107;-78
2022/03/12 12:50:39;;;;;;;;;;;;;;;;;;5065706;28;1421;-77
2022/03/12 12:53:09;;;;;;;;;;;;;;;;;;5074800;28;1219;-77
2022/03/12 12:55:34;;;;;;;;;;;;;;;;;;5087309;28;1456;-76
2022/03/12 12:58:03;;;;;;;;;;;;;;;;;;5103744;28;1120;-78
2022/03/12 13:00:32;;;;;;;;;;;;;;;;;;5085927;28;1304;-78
2022/03/12 13:02:58;;;;;;;;;;;;;;;;;;5085164;28;1286;-77
2022/03/12 13:05:42;;;;;;;;;;;;;;;;;;5087760;28;1901;-77
2022/03/12 13:08:08;;;;;;;;;;;;;;;;;;5090469;28;1147;-77
2022/03/12 13:10:33;;;;;;;;;;;;;;;;;;5065449;28;1219;-77
2022/03/12 13:13:17;;;;;;;;;;;;;;;;;;5084572;28;1135;-78
2022/03/12 13:15:46;;;;;;;;;;;;;;;;;;5081614;28;1152;-78
2022/03/12 13:18:21;;;;;;;;;;;;;;;;;;5085077;28;1132;-78
2022/03/12 13:20:47;;;;;;;;;;;;;;;;;;5082644;28;1048;-79
2022/03/12 13:23:18;;;;;;;;;;;;;;;;;;5073977;28;1404;-78
2022/03/12 13:25:53;;;;;;;;;;;;;;;;;;5085890;28;1977;-77
2022/03/12 13:28:39;;;;;;;;;;;;;;;;;;5085743;28;1296;-77
2022/03/12 13:31:13;;;;;;;;;;;;;;;;;;5082177;28;1289;-77
2022/03/12 13:33:38;;;;;;;;;;;;;;;;;;5083330;28;1268;-78
2022/03/12 13:36:04;;;;;;;;;;;;;;;;;;5104356;28;1159;-78
2022/03/12 13:38:30;;;;;;;;;;;;;;;;;;5101336;28;1147;-77
2022/03/12 13:40:55;;;;;;;;;;;;;;;;;;5067719;28;1183;-78
2022/03/12 13:43:20;;;;;;;;;;;;;;;;;;5087180;28;1128;-78
2022/03/12 13:45:59;;;;;;;;;;;;;;;;;;5079023;28;1948;-78
2022/03/12 13:48:24;;;;;;;;;;;;;;;;;;5085203;28;1261;-78
2022/03/12 13:50:54;;;;;;;;;;;;;;;;;;5081024;28;1198;-75
2022/03/12 13:53:21;;;;;;;;;;;;;;;;;;5086824;28;1250;-76
2022/03/12 13:55:46;;;;;;;;;;;;;;;;;;5060888;28;1500;-76
2022/03/12 13:58:11;;;;;;;;;;;;;;;;;;5098367;28;1065;-76
2022/03/12 14:00:39;;;;;;;;;;;;;;;;;;5087286;28;1136;-77
2022/03/12 14:03:05;;;;;;;;;;;;;;;;;;5083816;28;1281;-77
2022/03/12 14:05:41;;;;;;;;;;;;;;;;;;5062227;28;1889;-77
2022/03/12 14:08:20;;;;;;;;;;;;;;;;;;5069291;28;1215;-76
2022/03/12 14:10:46;;;;;;;;;;;;;;;;;;5067619;28;1516;-77
2022/03/12 14:13:11;;;;;;;;;;;;;;;;;;5082572;28;1277;-77
2022/03/12 14:15:46;;;;;;;;;;;;;;;;;;5104239;28;1180;-76
2022/03/12 14:18:18;;;;;;;;;;;;;;;;;;5081520;28;1246;-77
2022/03/12 14:20:43;;;;;;;;;;;;;;;;;;5106088;28;1101;-76
2022/03/12 14:23:09;;;;;;;;;;;;;;;;;;5073027;28;1323;-76
2022/03/12 14:25:35;;;;;;;;;;;;;;;;;;5072244;28;1957;-77
2022/03/12 14:28:04;;;;;;;;;;;;;;;;;;5073811;28;1404;-76
2022/03/12 14:30:48;;;;;;;;;;;;;;;;;;5095598;28;1230;-76
2022/03/12 14:33:14;;;;;;;;;;;;;;;;;;5069002;28;1501;-75
2022/03/12 14:35:40;;;;;;;;;;;;;;;;;;5049717;28;1207;-76
2022/03/12 14:38:08;;;;;;;;;;;;;;;;;;5062734;28;1461;-76
2022/03/12 14:40:40;;;;;;;;;;;;;;;;;;5068551;28;1274;-76
2022/03/12 14:43:05;;;;;;;;;;;;;;;;;;5087064;28;1211;-77
2022/03/12 14:45:45;;;;;;;;;;;;;;;;;;5067258;28;1981;-77
2022/03/12 14:48:15;;;;;;;;;;;;;;;;;;5054115;28;1314;-77
2022/03/12 14:50:41;;;;;;;;;;;;;;;;;;5051166;28;1219;-76
2022/03/12 14:53:07;;;;;;;;;;;;;;;;;;5069411;28;1243;-76
2022/03/12 14:55:43;;;;;;;;;;;;;;;;;;5100728;28;1207;-77
2022/03/12 14:58:08;;;;;;;;;;;;;;;;;;5087252;28;1195;-77
2022/03/12 15:00:52;;;;;;;;;;;;;;;;;;5084568;28;1180;-76
2022/03/12 15:03:17;;;;;;;;;;;;;;;;;;5093317;28;1120;-77
2022/03/12 15:05:44;;;;;;;;;;;;;;;;;;5088099;28;1957;-77
2022/03/12 15:08:11;;;;;;;;;;;;;;;;;;5089727;28;1241;-76
2022/03/12 15:10:42;;;;;;;;;;;;;;;;;;5071890;28;1199;-77
2022/03/12 15:13:12;;;;;;;;;;;;;;;;;;5107527;28;1219;-77
2022/03/12 15:15:48;;;;;;;;;;;;;;;;;;5087826;28;1154;-78
2022/03/12 15:18:14;;;;;;;;;;;;;;;;;;5068396;28;1311;-76
2022/03/12 15:20:43;;;;;;;;;;;;;;;;;;5067176;28;1160;-76
2022/03/12 15:23:11;;;;;;;;;;;;;;;;;;5087085;28;1108;-77
2022/03/12 15:25:42;;;;;;;;;;;;;;;;;;5085378;28;1906;-77
2022/03/12 15:28:13;;;;;;;;;;;;;;;;;;5088245;28;1144;-77
2022/03/12 15:30:50;;;;;;;;;;;;;;;;;;5065290;28;1203;-77
2022/03/12 15:33:25;;;;;;;;;;;;;;;;;;5067783;28;1141;-77
2022/03/12 15:35:53;;;;;;;;;;;;;;;;;;5064448;28;1195;-76
2022/03/12 15:38:19;;;;;;;;;;;;;;;;;;5067509;28;1306;-77
2022/03/12 15:40:45;;;;;;;;;;;;;;;;;;5064780;28;1252;-76
2022/03/12 15:43:11;;;;;;;;;;;;;;;;;;5100330;28;1159;-77
2022/03/12 15:45:46;;;;;;;;;;;;;;;;;;5085419;28;2006;-77
2022/03/12 15:48:12;;;;;;;;;;;;;;;;;;5106765;28;1155;-76
2022/03/12 15:50:43;;;;;;;;;;;;;;;;;;5105451;28;1159;-76
2022/03/12 15:53:09;;;;;;;;;;;;;;;;;;5086326;28;1400;-75
2022/03/12 15:55:41;;;;;;;;;;;;;;;;;;5079266;28;1198;-77
2022/03/12 15:58:09;;;;;;;;;;;;;;;;;;5082765;28;1160;-76
2022/03/12 16:01:08;;;;;;;;;;;;;;;;;;5082618;28;1111;-78
2022/03/12 16:03:31;;;;;;;;;;;;;;;;;;5075912;28;1076;-75
2022/03/12 16:05:57;;;;;;;;;;;;;;;;;;5075571;28;1898;-76
2022/03/12 16:08:26;;;;;;;;;;;;;;;;;;5066324;28;1312;-76
2022/03/12 16:10:55;;;;;;;;;;;;;;;;;;5067106;28;1231;-77
2022/03/12 16:13:21;;;;;;;;;;;;;;;;;;5065709;28;1295;-76
2022/03/12 16:16:00;;;;;;;;;;;;;;;;;;5062631;28;1329;-77
2022/03/12 16:18:26;;;;;;;;;;;;;;;;;;5059015;28;1215;-76
2022/03/12 16:20:57;;;;;;;;;;;;;;;;;;5075996;28;1314;-77
2022/03/12 16:23:26;;;;;;;;;;;;;;;;;;5077678;28;1195;-76
2022/03/12 16:25:53;;;;;;;;;;;;;;;;;;5085075;28;1922;-77
2022/03/12 16:28:19;;;;;;;;;;;;;;;;;;5065304;28;1189;-77
2022/03/12 16:30:45;;;;;;;;;;;;;;;;;;5085589;28;1152;-77
2022/03/12 16:33:10;;;;;;;;;;;;;;;;;;5064586;28;1242;-76
2022/03/12 16:35:36;;;;;;;;;;;;;;;;;;5087419;28;1238;-76
2022/03/12 16:38:02;;;;;;;;;;;;;;;;;;5064905;28;1254;-76
2022/03/12 16:40:36;;;;;;;;;;;;;;;;;;5068020;28;1344;-75
2022/03/12 16:43:04;;;;;;;;;;;;;;;;;;5064031;28;1362;-76
2022/03/12 16:45:29;;;;;;;;;;;;;;;;;;5086622;28;1886;-76
2022/03/12 16:47:58;;;;;;;;;;;;;;;;;;5058877;28;1171;-76
2022/03/12 16:50:24;;;;;;;;;;;;;;;;;;5068672;28;1371;-76
2022/03/12 16:52:50;;;;;;;;;;;;;;;;;;5063024;28;1197;-76
2022/03/12 16:55:16;;;;;;;;;;;;;;;;;;5067133;28;1299;-76
2022/03/12 16:57:47;;;;;;;;;;;;;;;;;;5062106;28;1285;-76
2022/03/12 17:00:14;;;;;;;;;;;;;;;;;;5084090;28;1099;-77
2022/03/12 17:02:46;;;;;;;;;;;;;;;;;;5060922;28;1482;-75
2022/03/12 17:05:11;;;;;;;;;;;;;;;;;;5067045;28;1898;-76
2022/03/12 17:07:36;;;;;;;;;;;;;;;;;;5048951;28;1183;-76